Flyer — WDJ5814 — position and weather

sailwx.info

Track history (hours):
 
Tides and Currents Weather Stations Pressure Air Temp Water Temp Dewpoint Dewpoint Depression Visibility Wind Speed Wind Dir Waves Ship Positions

Flyer

Owner: HNY Ferry Fleet LLC, New York, NY. More information available from US FCC via Universal Licensing System and Coast Guard Vessel Documentation Center.

Last reported at 2017-Oct-18 12:30 UTC. Time now 2017-Oct-18 12:42 UTC.
Position N 40°34' W 073°54'.

Length 26 m; draft 2 m.

Type: Passenger vessel. MMSI: 367791550.

Date/timePositionNaut miles runAvg speedWind from/ knotsBaromVisibWave heightAir tempDewpointWater temp
2017-Oct-18 12:30N 40°34' W 073°54'0 0.0
2017-Oct-18 12:01N 40°34' W 073°54'714.7
2017-Oct-18 11:30N 40°39' W 074°02'0 0.2
2017-Oct-18 11:01N 40°39' W 074°02'713.2
2017-Oct-18 10:30N 40°34' W 073°56'5 8.4
2017-Oct-18 09:58N 40°35' W 073°50'920.9
2017-Oct-18 09:31N 40°36' W 074°02'713.1
2017-Oct-18 09:00N 40°42' W 073°58'0 0.0
2017-Oct-18 08:30N 40°42' W 073°58'0 0.0
2017-Oct-17 23:39N 40°42' W 073°58'0 1.3
2017-Oct-17 23:31N 40°42' W 073°58'4 8.4
2017-Oct-17 23:00N 40°39' W 074°02'714.5
2017-Oct-17 22:30N 40°34' W 073°54'2 4.4
2017-Oct-17 21:59N 40°34' W 073°57'613.2
2017-Oct-17 21:31N 40°39' W 074°02'0 0.8
2017-Oct-17 21:01N 40°39' W 074°02'713.6
2017-Oct-17 20:30N 40°34' W 073°55'1 1.0
2017-Oct-17 20:00N 40°34' W 073°56'714.2
2017-Oct-17 19:30N 40°39' W 074°02'0 0.5
2017-Oct-17 19:01N 40°39' W 074°02'713.4
2017-Oct-17 18:30N 40°34' W 073°55'1 2.7
2017-Oct-17 18:00N 40°34' W 073°54'815.2
2017-Oct-17 17:30N 40°39' W 074°02'0 0.1
2017-Oct-17 17:00N 40°39' W 074°02'713.1
2017-Oct-17 16:30N 40°34' W 073°56'1 1.7
2017-Oct-17 16:00N 40°34' W 073°55'714.6
2017-Oct-17 15:30N 40°39' W 074°02'0 0.3
2017-Oct-17 15:01N 40°39' W 074°02'712.7
2017-Oct-17 14:30N 40°34' W 073°56'2 3.1
2017-Oct-17 14:00N 40°34' W 073°54'714.9
2017-Oct-17 13:30N 40°39' W 074°02'0 0.3
2017-Oct-17 13:01N 40°39' W 074°02'713.3
2017-Oct-17 12:30N 40°34' W 073°56'1 1.3
2017-Oct-17 12:00N 40°34' W 073°55'714.2
2017-Oct-17 11:30N 40°39' W 074°02'0 0.2
2017-Oct-17 11:01N 40°39' W 074°02'713.5
2017-Oct-17 10:30N 40°34' W 073°56'5 8.9
2017-Oct-17 10:00N 40°35' W 073°50'919.0
2017-Oct-17 09:30N 40°36' W 074°02'713.3
2017-Oct-17 09:00N 40°42' W 073°58'0 0.0
2017-Oct-17 01:32N 40°42' W 073°58'0 0.0
2017-Oct-17 01:31N 40°42' W 073°58'4 8.3
2017-Oct-17 01:01N 40°39' W 074°02'713.8
2017-Oct-17 00:30N 40°34' W 073°55'1 1.1
2017-Oct-17 00:00N 40°34' W 073°56'714.1
2017-Oct-16 23:31N 40°39' W 074°02'0 0.5
2017-Oct-16 23:00N 40°39' W 074°02'713.9
2017-Oct-16 22:31N 40°34' W 073°55'1 1.1
2017-Oct-16 22:00N 40°34' W 073°56'713.9
2017-Oct-16 21:31N 40°39' W 074°02'0 0.3
2017-Oct-16 21:00N 40°39' W 074°02'713.5
2017-Oct-16 20:30N 40°34' W 073°55'0 0.3
2017-Oct-16 20:01N 40°34' W 073°55'714.5
2017-Oct-16 19:30N 40°39' W 074°02'0 0.6
2017-Oct-16 19:01N 40°39' W 074°02'713.9
2017-Oct-16 18:30N 40°34' W 073°55'1 1.8
2017-Oct-16 18:00N 40°34' W 073°56'714.0
2017-Oct-16 17:30N 40°39' W 074°02'0 0.4
2017-Oct-16 17:00N 40°39' W 074°02'713.0
2017-Oct-16 16:30N 40°34' W 073°56'3 5.7
2017-Oct-16 16:00N 40°35' W 073°53'816.5
2017-Oct-16 15:31N 40°39' W 074°02'0 0.0
2017-Oct-16 15:01N 40°39' W 074°02'8 8.0
2017-Oct-16 14:01N 40°34' W 073°53'816.0
2017-Oct-16 13:31N 40°39' W 074°02'0 0.0
2017-Oct-16 13:00N 40°39' W 074°02'713.2
2017-Oct-16 12:31N 40°34' W 073°56'1 2.6
2017-Oct-16 12:00N 40°34' W 073°54'714.8
2017-Oct-16 11:31N 40°39' W 074°02'0 0.2
2017-Oct-16 11:00N 40°39' W 074°02'713.4
2017-Oct-16 10:30N 40°34' W 073°56'5 9.0
2017-Oct-16 10:00N 40°35' W 073°50'919.2
2017-Oct-16 09:31N 40°36' W 074°02'713.3
2017-Oct-16 09:00N 40°42' W 073°58'0 0.0
2017-Oct-15 02:43N 40°42' W 073°58'1 7.2
2017-Oct-15 02:31N 40°42' W 074°00'611.5
2017-Oct-15 02:00N 40°37' W 074°02'1019.1
2017-Oct-15 01:30N 40°35' W 073°50'816.3
2017-Oct-15 01:00N 40°34' W 074°00'816.1
2017-Oct-15 00:30N 40°42' W 074°00'611.6
2017-Oct-15 00:01N 40°37' W 074°02'1019.3
2017-Oct-14 23:30N 40°35' W 073°50'816.2
2017-Oct-14 23:00N 40°34' W 074°01'816.1
2017-Oct-14 22:30N 40°42' W 074°00'713.8
2017-Oct-14 22:01N 40°35' W 074°02'915.8
2017-Oct-14 21:27N 40°35' W 073°50'920.7
2017-Oct-14 21:00N 40°36' W 074°02'612.1
2017-Oct-14 20:30N 40°42' W 074°00'612.6
2017-Oct-14 20:00N 40°36' W 074°02'918.7
2017-Oct-14 19:30N 40°35' W 073°50'917.0
2017-Oct-14 19:00N 40°35' W 074°01'815.4
2017-Oct-14 18:30N 40°42' W 074°00'611.5
2017-Oct-14 18:00N 40°37' W 074°02'1019.3
2017-Oct-14 17:30N 40°35' W 073°50'816.8
2017-Oct-14 17:00N 40°34' W 074°01'816.1
2017-Oct-14 16:30N 40°42' W 074°00'611.5
2017-Oct-14 16:00N 40°37' W 074°02'1017.5
2017-Oct-14 15:27N 40°35' W 073°50'920.4
2017-Oct-14 15:00N 40°35' W 074°02'713.7
2017-Oct-14 14:30N 40°42' W 074°00'511.0
2017-Oct-14 14:00N 40°37' W 074°03'1019.5
2017-Oct-14 13:30N 40°35' W 073°50'714.1
2017-Oct-14 13:00N 40°34' W 073°59'816.5
2017-Oct-14 12:30N 40°42' W 074°00'5 9.9
2017-Oct-14 12:00N 40°38' W 074°03'1020.1
2017-Oct-14 11:30N 40°35' W 073°50'815.9
2017-Oct-14 11:00N 40°34' W 074°00'816.1
2017-Oct-14 10:30N 40°42' W 073°58'0 0.0
2017-Oct-13 01:30N 40°42' W 073°58'4 8.4
2017-Oct-13 01:00N 40°39' W 074°02'815.7
2017-Oct-13 00:30N 40°34' W 073°53'4 8.4
2017-Oct-13 00:00N 40°34' W 073°58'714.4
2017-Oct-12 23:30N 40°41' W 074°01'2 4.0
2017-Oct-12 23:00N 40°39' W 074°02'916.8
2017-Oct-12 22:30N 40°35' W 073°52'3 7.0
2017-Oct-12 22:00N 40°34' W 073°56'714.6
2017-Oct-12 21:30N 40°40' W 074°01'1 2.3
2017-Oct-12 21:00N 40°39' W 074°02'815.1
2017-Oct-12 20:30N 40°34' W 073°54'2 4.4
2017-Oct-12 20:00N 40°34' W 073°56'713.9
2017-Oct-12 19:30N 40°39' W 074°02'2 3.5
2017-Oct-12 19:00N 40°38' W 074°03'1019.2
2017-Oct-12 18:30N 40°35' W 073°51'510.5
2017-Oct-12 18:00N 40°34' W 073°57'612.1
2017-Oct-12 17:30N 40°39' W 074°02'0 0.4
2017-Oct-12 17:00N 40°39' W 074°02'713.0
2017-Oct-12 16:30N 40°34' W 073°56'2 3.7
2017-Oct-12 16:00N 40°34' W 073°54'815.3
2017-Oct-12 15:30N 40°39' W 074°02'0 0.0
2017-Oct-12 15:00N 40°39' W 074°02'713.6
2017-Oct-12 14:30N 40°34' W 073°56'1 1.0
2017-Oct-12 14:00N 40°34' W 073°55'814.9
2017-Oct-12 13:30N 40°40' W 074°01'1 2.0
2017-Oct-12 13:00N 40°39' W 074°02'713.8
2017-Oct-12 12:30N 40°34' W 073°56'1 2.1
2017-Oct-12 12:00N 40°34' W 073°54'714.5
2017-Oct-12 11:30N 40°39' W 074°02'0 0.4
2017-Oct-12 11:00N 40°39' W 074°02'612.7
2017-Oct-12 10:30N 40°34' W 073°56'2 3.4
2017-Oct-12 10:00N 40°34' W 073°54'917.1
2017-Oct-12 09:30N 40°41' W 074°01'3 5.1
2017-Oct-12 09:00N 40°42' W 073°58'1 0.0
2017-Oct-11 00:01N 40°42' W 074°00'3 6.8
2017-Oct-10 23:30N 40°39' W 074°02'713.5
2017-Oct-10 23:01N 40°34' W 073°56'2 3.6
2017-Oct-10 22:30N 40°34' W 073°53'815.5
2017-Oct-10 22:00N 40°39' W 074°02'4 7.1
2017-Oct-10 21:31N 40°42' W 074°00'5 9.6
2017-Oct-10 21:01N 40°38' W 074°03'1019.2
2017-Oct-10 20:30N 40°35' W 073°50'713.4
2017-Oct-10 20:00N 40°34' W 073°59'816.6
2017-Oct-10 19:30N 40°42' W 074°00'4 7.9
2017-Oct-10 19:01N 40°39' W 074°02'1018.5
2017-Oct-10 18:29N 40°35' W 073°51'510.6
2017-Oct-10 18:00N 40°34' W 073°57'714.5
2017-Oct-10 17:31N 40°40' W 074°01'1 2.9
2017-Oct-10 17:01N 40°39' W 074°02'815.5
2017-Oct-10 16:31N 40°34' W 073°53'2 4.4
2017-Oct-10 16:00N 40°34' W 073°56'713.7
2017-Oct-10 15:30N 40°39' W 074°02'0 0.4
2017-Oct-10 15:00N 40°39' W 074°02'8 8.2
2017-Oct-10 14:00N 40°35' W 073°52'816.5
2017-Oct-10 13:31N 40°39' W 074°02'0 0.0
2017-Oct-10 13:01N 40°39' W 074°02'713.2
2017-Oct-10 12:30N 40°34' W 073°56'1 2.1
2017-Oct-10 12:00N 40°34' W 073°54'714.7
2017-Oct-10 11:31N 40°39' W 074°02'0 0.2
2017-Oct-10 11:01N 40°39' W 074°02'713.4
2017-Oct-10 10:30N 40°34' W 073°56'3 6.8
2017-Oct-10 10:00N 40°35' W 073°51'918.2
2017-Oct-10 09:31N 40°39' W 074°02'4 7.6
2017-Oct-10 09:00N 40°42' W 073°58'0 0.0
2017-Oct-10 01:29N 40°42' W 073°58'4 8.8
2017-Oct-10 01:01N 40°39' W 074°02'714.3
2017-Oct-10 00:30N 40°34' W 073°55'2 3.6
2017-Oct-10 00:00N 40°34' W 073°57'714.5
2017-Oct-09 23:31N 40°40' W 074°01'1 2.8
2017-Oct-09 23:01N 40°39' W 074°02'815.7
2017-Oct-09 22:30N 40°34' W 073°53'510.1
2017-Oct-09 22:00N 40°34' W 073°60'715.0
2017-Oct-09 21:31N 40°41' W 074°01'3 5.2
2017-Oct-09 21:00N 40°39' W 074°02'713.0
2017-Oct-09 20:30N 40°34' W 073°56'0 0.6
2017-Oct-09 20:00N 40°34' W 073°55'714.1
2017-Oct-09 19:30N 40°39' W 074°02'0 0.4
2017-Oct-09 19:01N 40°39' W 074°02'713.6
2017-Oct-09 18:30N 40°34' W 073°55'0 0.5
2017-Oct-09 18:00N 40°34' W 073°56'713.9
2017-Oct-09 17:31N 40°39' W 074°02'0 0.4
2017-Oct-09 17:00N 40°39' W 074°02'713.6
2017-Oct-09 16:30N 40°34' W 073°55'1 1.3
2017-Oct-09 16:01N 40°34' W 073°56'713.6
2017-Oct-09 15:31N 40°39' W 074°02'0 0.5
2017-Oct-09 15:00N 40°39' W 074°02'714.1
2017-Oct-09 14:30N 40°34' W 073°55'0 0.7
2017-Oct-09 14:01N 40°34' W 073°55'714.2
2017-Oct-09 13:30N 40°39' W 074°02'0 0.3
2017-Oct-09 13:01N 40°39' W 074°02'713.3
2017-Oct-09 12:30N 40°34' W 073°56'3 5.6
2017-Oct-09 12:00N 40°35' W 073°52'816.6
2017-Oct-09 11:31N 40°39' W 074°02'0 0.0
2017-Oct-09 11:00N 40°39' W 074°02'612.9
2017-Oct-09 10:30N 40°34' W 073°56'5 9.0
2017-Oct-09 09:57N 40°35' W 073°50'920.0
2017-Oct-09 09:30N 40°35' W 074°02'715.0
2017-Oct-09 09:01N 40°42' W 073°58'0 0.0
2017-Oct-09 08:30N 40°42' W 073°58'0 0.0
2017-Oct-09 03:24N 40°42' W 073°58'616.7
2017-Oct-09 03:01N 40°36' W 074°02'1017.9
2017-Oct-09 02:28N 40°35' W 073°50'918.7
2017-Oct-09 02:00N 40°35' W 074°01'714.8
2017-Oct-09 01:30N 40°42' W 074°00'  
Track history (hours):
 
Tides and Currents Weather Stations Pressure Air Temp Water Temp Dewpoint Dewpoint Depression Visibility Wind Speed Wind Dir Waves Ship Positions

Flyer

Owner: HNY Ferry Fleet LLC, New York, NY. More information available from US FCC via Universal Licensing System and Coast Guard Vessel Documentation Center.

Last reported at 2017-Oct-18 12:30 UTC. Time now 2017-Oct-18 12:42 UTC.
Position N 40°34' W 073°54'.

Length 26 m; draft 2 m.

Type: Passenger vessel. MMSI: 367791550.

Date/timePositionNaut miles runAvg speedWind from/ knotsBaromVisibWave heightAir tempDewpointWater temp
2017-Oct-18 12:30N 40°34' W 073°54'0 0.0
2017-Oct-18 12:01N 40°34' W 073°54'714.7
2017-Oct-18 11:30N 40°39' W 074°02'0 0.2
2017-Oct-18 11:01N 40°39' W 074°02'713.2
2017-Oct-18 10:30N 40°34' W 073°56'5 8.4
2017-Oct-18 09:58N 40°35' W 073°50'920.9
2017-Oct-18 09:31N 40°36' W 074°02'713.1
2017-Oct-18 09:00N 40°42' W 073°58'0 0.0
2017-Oct-18 08:30N 40°42' W 073°58'0 0.0
2017-Oct-17 23:39N 40°42' W 073°58'0 1.3
2017-Oct-17 23:31N 40°42' W 073°58'4 8.4
2017-Oct-17 23:00N 40°39' W 074°02'714.5
2017-Oct-17 22:30N 40°34' W 073°54'2 4.4
2017-Oct-17 21:59N 40°34' W 073°57'613.2
2017-Oct-17 21:31N 40°39' W 074°02'0 0.8
2017-Oct-17 21:01N 40°39' W 074°02'713.6
2017-Oct-17 20:30N 40°34' W 073°55'1 1.0
2017-Oct-17 20:00N 40°34' W 073°56'714.2
2017-Oct-17 19:30N 40°39' W 074°02'0 0.5
2017-Oct-17 19:01N 40°39' W 074°02'713.4
2017-Oct-17 18:30N 40°34' W 073°55'1 2.7
2017-Oct-17 18:00N 40°34' W 073°54'815.2
2017-Oct-17 17:30N 40°39' W 074°02'0 0.1
2017-Oct-17 17:00N 40°39' W 074°02'713.1
2017-Oct-17 16:30N 40°34' W 073°56'1 1.7
2017-Oct-17 16:00N 40°34' W 073°55'714.6
2017-Oct-17 15:30N 40°39' W 074°02'0 0.3
2017-Oct-17 15:01N 40°39' W 074°02'712.7
2017-Oct-17 14:30N 40°34' W 073°56'2 3.1
2017-Oct-17 14:00N 40°34' W 073°54'714.9
2017-Oct-17 13:30N 40°39' W 074°02'0 0.3
2017-Oct-17 13:01N 40°39' W 074°02'713.3
2017-Oct-17 12:30N 40°34' W 073°56'1 1.3
2017-Oct-17 12:00N 40°34' W 073°55'714.2
2017-Oct-17 11:30N 40°39' W 074°02'0 0.2
2017-Oct-17 11:01N 40°39' W 074°02'713.5
2017-Oct-17 10:30N 40°34' W 073°56'5 8.9
2017-Oct-17 10:00N 40°35' W 073°50'919.0
2017-Oct-17 09:30N 40°36' W 074°02'713.3
2017-Oct-17 09:00N 40°42' W 073°58'0 0.0
2017-Oct-17 01:32N 40°42' W 073°58'0 0.0
2017-Oct-17 01:31N 40°42' W 073°58'4 8.3
2017-Oct-17 01:01N 40°39' W 074°02'713.8
2017-Oct-17 00:30N 40°34' W 073°55'1 1.1
2017-Oct-17 00:00N 40°34' W 073°56'714.1
2017-Oct-16 23:31N 40°39' W 074°02'0 0.5
2017-Oct-16 23:00N 40°39' W 074°02'713.9
2017-Oct-16 22:31N 40°34' W 073°55'1 1.1
2017-Oct-16 22:00N 40°34' W 073°56'713.9
2017-Oct-16 21:31N 40°39' W 074°02'0 0.3
2017-Oct-16 21:00N 40°39' W 074°02'713.5
2017-Oct-16 20:30N 40°34' W 073°55'0 0.3
2017-Oct-16 20:01N 40°34' W 073°55'714.5
2017-Oct-16 19:30N 40°39' W 074°02'0 0.6
2017-Oct-16 19:01N 40°39' W 074°02'713.9
2017-Oct-16 18:30N 40°34' W 073°55'1 1.8
2017-Oct-16 18:00N 40°34' W 073°56'714.0
2017-Oct-16 17:30N 40°39' W 074°02'0 0.4
2017-Oct-16 17:00N 40°39' W 074°02'713.0
2017-Oct-16 16:30N 40°34' W 073°56'3 5.7
2017-Oct-16 16:00N 40°35' W 073°53'816.5
2017-Oct-16 15:31N 40°39' W 074°02'0 0.0
2017-Oct-16 15:01N 40°39' W 074°02'8 8.0
2017-Oct-16 14:01N 40°34' W 073°53'816.0
2017-Oct-16 13:31N 40°39' W 074°02'0 0.0
2017-Oct-16 13:00N 40°39' W 074°02'713.2
2017-Oct-16 12:31N 40°34' W 073°56'1 2.6
2017-Oct-16 12:00N 40°34' W 073°54'714.8
2017-Oct-16 11:31N 40°39' W 074°02'0 0.2
2017-Oct-16 11:00N 40°39' W 074°02'713.4
2017-Oct-16 10:30N 40°34' W 073°56'5 9.0
2017-Oct-16 10:00N 40°35' W 073°50'919.2
2017-Oct-16 09:31N 40°36' W 074°02'713.3
2017-Oct-16 09:00N 40°42' W 073°58'0 0.0
2017-Oct-15 02:43N 40°42' W 073°58'1 7.2
2017-Oct-15 02:31N 40°42' W 074°00'611.5
2017-Oct-15 02:00N 40°37' W 074°02'1019.1
2017-Oct-15 01:30N 40°35' W 073°50'816.3
2017-Oct-15 01:00N 40°34' W 074°00'816.1
2017-Oct-15 00:30N 40°42' W 074°00'611.6
2017-Oct-15 00:01N 40°37' W 074°02'1019.3
2017-Oct-14 23:30N 40°35' W 073°50'816.2
2017-Oct-14 23:00N 40°34' W 074°01'816.1
2017-Oct-14 22:30N 40°42' W 074°00'713.8
2017-Oct-14 22:01N 40°35' W 074°02'915.8
2017-Oct-14 21:27N 40°35' W 073°50'920.7
2017-Oct-14 21:00N 40°36' W 074°02'612.1
2017-Oct-14 20:30N 40°42' W 074°00'612.6
2017-Oct-14 20:00N 40°36' W 074°02'918.7
2017-Oct-14 19:30N 40°35' W 073°50'917.0
2017-Oct-14 19:00N 40°35' W 074°01'815.4
2017-Oct-14 18:30N 40°42' W 074°00'611.5
2017-Oct-14 18:00N 40°37' W 074°02'1019.3
2017-Oct-14 17:30N 40°35' W 073°50'816.8
2017-Oct-14 17:00N 40°34' W 074°01'816.1
2017-Oct-14 16:30N 40°42' W 074°00'611.5
2017-Oct-14 16:00N 40°37' W 074°02'1017.5
2017-Oct-14 15:27N 40°35' W 073°50'920.4
2017-Oct-14 15:00N 40°35' W 074°02'713.7
2017-Oct-14 14:30N 40°42' W 074°00'511.0
2017-Oct-14 14:00N 40°37' W 074°03'1019.5
2017-Oct-14 13:30N 40°35' W 073°50'714.1
2017-Oct-14 13:00N 40°34' W 073°59'816.5
2017-Oct-14 12:30N 40°42' W 074°00'5 9.9
2017-Oct-14 12:00N 40°38' W 074°03'1020.1
2017-Oct-14 11:30N 40°35' W 073°50'815.9
2017-Oct-14 11:00N 40°34' W 074°00'816.1
2017-Oct-14 10:30N 40°42' W 073°58'0 0.0
2017-Oct-13 01:30N 40°42' W 073°58'4 8.4
2017-Oct-13 01:00N 40°39' W 074°02'815.7
2017-Oct-13 00:30N 40°34' W 073°53'4 8.4
2017-Oct-13 00:00N 40°34' W 073°58'714.4
2017-Oct-12 23:30N 40°41' W 074°01'2 4.0
2017-Oct-12 23:00N 40°39' W 074°02'916.8
2017-Oct-12 22:30N 40°35' W 073°52'3 7.0
2017-Oct-12 22:00N 40°34' W 073°56'714.6
2017-Oct-12 21:30N 40°40' W 074°01'1 2.3
2017-Oct-12 21:00N 40°39' W 074°02'815.1
2017-Oct-12 20:30N 40°34' W 073°54'2 4.4
2017-Oct-12 20:00N 40°34' W 073°56'713.9
2017-Oct-12 19:30N 40°39' W 074°02'2 3.5
2017-Oct-12 19:00N 40°38' W 074°03'1019.2
2017-Oct-12 18:30N 40°35' W 073°51'510.5
2017-Oct-12 18:00N 40°34' W 073°57'612.1
2017-Oct-12 17:30N 40°39' W 074°02'0 0.4
2017-Oct-12 17:00N 40°39' W 074°02'713.0
2017-Oct-12 16:30N 40°34' W 073°56'2 3.7
2017-Oct-12 16:00N 40°34' W 073°54'815.3
2017-Oct-12 15:30N 40°39' W 074°02'0 0.0
2017-Oct-12 15:00N 40°39' W 074°02'713.6
2017-Oct-12 14:30N 40°34' W 073°56'1 1.0
2017-Oct-12 14:00N 40°34' W 073°55'814.9
2017-Oct-12 13:30N 40°40' W 074°01'1 2.0
2017-Oct-12 13:00N 40°39' W 074°02'713.8
2017-Oct-12 12:30N 40°34' W 073°56'1 2.1
2017-Oct-12 12:00N 40°34' W 073°54'714.5
2017-Oct-12 11:30N 40°39' W 074°02'0 0.4
2017-Oct-12 11:00N 40°39' W 074°02'612.7
2017-Oct-12 10:30N 40°34' W 073°56'2 3.4
2017-Oct-12 10:00N 40°34' W 073°54'917.1
2017-Oct-12 09:30N 40°41' W 074°01'3 5.1
2017-Oct-12 09:00N 40°42' W 073°58'1 0.0
2017-Oct-11 00:01N 40°42' W 074°00'3 6.8
2017-Oct-10 23:30N 40°39' W 074°02'713.5
2017-Oct-10 23:01N 40°34' W 073°56'2 3.6
2017-Oct-10 22:30N 40°34' W 073°53'815.5
2017-Oct-10 22:00N 40°39' W 074°02'4 7.1
2017-Oct-10 21:31N 40°42' W 074°00'5 9.6
2017-Oct-10 21:01N 40°38' W 074°03'1019.2
2017-Oct-10 20:30N 40°35' W 073°50'713.4
2017-Oct-10 20:00N 40°34' W 073°59'816.6
2017-Oct-10 19:30N 40°42' W 074°00'4 7.9
2017-Oct-10 19:01N 40°39' W 074°02'1018.5
2017-Oct-10 18:29N 40°35' W 073°51'510.6
2017-Oct-10 18:00N 40°34' W 073°57'714.5
2017-Oct-10 17:31N 40°40' W 074°01'1 2.9
2017-Oct-10 17:01N 40°39' W 074°02'815.5
2017-Oct-10 16:31N 40°34' W 073°53'2 4.4
2017-Oct-10 16:00N 40°34' W 073°56'713.7
2017-Oct-10 15:30N 40°39' W 074°02'0 0.4
2017-Oct-10 15:00N 40°39' W 074°02'8 8.2
2017-Oct-10 14:00N 40°35' W 073°52'816.5
2017-Oct-10 13:31N 40°39' W 074°02'0 0.0
2017-Oct-10 13:01N 40°39' W 074°02'713.2
2017-Oct-10 12:30N 40°34' W 073°56'1 2.1
2017-Oct-10 12:00N 40°34' W 073°54'714.7
2017-Oct-10 11:31N 40°39' W 074°02'0 0.2
2017-Oct-10 11:01N 40°39' W 074°02'713.4
2017-Oct-10 10:30N 40°34' W 073°56'3 6.8
2017-Oct-10 10:00N 40°35' W 073°51'918.2
2017-Oct-10 09:31N 40°39' W 074°02'4 7.6
2017-Oct-10 09:00N 40°42' W 073°58'0 0.0
2017-Oct-10 01:29N 40°42' W 073°58'4 8.8
2017-Oct-10 01:01N 40°39' W 074°02'714.3
2017-Oct-10 00:30N 40°34' W 073°55'2 3.6
2017-Oct-10 00:00N 40°34' W 073°57'714.5
2017-Oct-09 23:31N 40°40' W 074°01'1 2.8
2017-Oct-09 23:01N 40°39' W 074°02'815.7
2017-Oct-09 22:30N 40°34' W 073°53'510.1
2017-Oct-09 22:00N 40°34' W 073°60'715.0
2017-Oct-09 21:31N 40°41' W 074°01'3 5.2
2017-Oct-09 21:00N 40°39' W 074°02'713.0
2017-Oct-09 20:30N 40°34' W 073°56'0 0.6
2017-Oct-09 20:00N 40°34' W 073°55'714.1
2017-Oct-09 19:30N 40°39' W 074°02'0 0.4
2017-Oct-09 19:01N 40°39' W 074°02'713.6
2017-Oct-09 18:30N 40°34' W 073°55'0 0.5
2017-Oct-09 18:00N 40°34' W 073°56'713.9
2017-Oct-09 17:31N 40°39' W 074°02'0 0.4
2017-Oct-09 17:00N 40°39' W 074°02'713.6
2017-Oct-09 16:30N 40°34' W 073°55'1 1.3
2017-Oct-09 16:01N 40°34' W 073°56'713.6
2017-Oct-09 15:31N 40°39' W 074°02'0 0.5
2017-Oct-09 15:00N 40°39' W 074°02'714.1
2017-Oct-09 14:30N 40°34' W 073°55'0 0.7
2017-Oct-09 14:01N 40°34' W 073°55'714.2
2017-Oct-09 13:30N 40°39' W 074°02'0 0.3
2017-Oct-09 13:01N 40°39' W 074°02'713.3
2017-Oct-09 12:30N 40°34' W 073°56'3 5.6
2017-Oct-09 12:00N 40°35' W 073°52'816.6
2017-Oct-09 11:31N 40°39' W 074°02'0 0.0
2017-Oct-09 11:00N 40°39' W 074°02'612.9
2017-Oct-09 10:30N 40°34' W 073°56'5 9.0
2017-Oct-09 09:57N 40°35' W 073°50'920.0
2017-Oct-09 09:30N 40°35' W 074°02'715.0
2017-Oct-09 09:01N 40°42' W 073°58'0 0.0
2017-Oct-09 08:30N 40°42' W 073°58'0 0.0
2017-Oct-09 03:24N 40°42' W 073°58'616.7
2017-Oct-09 03:01N 40°36' W 074°02'1017.9
2017-Oct-09 02:28N 40°35' W 073°50'918.7
2017-Oct-09 02:00N 40°35' W 074°01'714.8
2017-Oct-09 01:30N 40°42' W 074°00'  

Dump ship's entire track history